Great Falls, Virginia
Current Conditions -  °F | °C
As of 1:52 PM on Saturday 25 Oct 2014 (Local Time) from KIAD Reporting Station
Few Clouds Few Clouds  
Wind Chill: 69°   Ceiling: Unl
Heat Index: 69°   Visibility: 10mi
Dew Point: 42°   Wind: 14mph
Humidity: 38%   Direction: 280°W
Pressure: 29.85"   Gusts: 21mph
Location:  39°N, 77.29°W
Report Text: KIAD 251752Z 28012G18KT 10SM FEW250 21/06 A2985 RMK AO2 SLP109 T02060056 10211 20061 58034
Loading
Personal Weather Stations






























Interactive Weather Map
Tropical Storm Tracking
New forecast layout! Learn more

10-Day Weather Forecast

Advertisements
Track Severe Weather on mobile